Terminal Aerodrome Forecast
Issued by NWS

Current Version | Previous Version | Text Only | Print | Product List | Glossary On
Versions: 1 2 3 4 5 6 7 8 9 10 11 12
245
FTUS45 KRIW 211720
TAFCOD
TAF
KCOD 211720Z 2118/2218 03008KT P6SM FEW150
     FM220200 32006KT P6SM FEW150
     FM220800 23007KT P6SM FEW150
      AMD LTD TO CLD VIS AND WIND=

USA.gov is the U.S. government's official web portal to all federal, state and local government web resources and services.